KCLW/CLW METAR and TAF weather

Enter ICAO airport designator
Station Type Date Time Source
KCLW METAR 2022/11/26 09:15 UTC NOAA

KCLW 260915Z AUTO 08003KT 1/2SM FG OVC002 21/21 A3004 RMK AO2


Station Type Date Time Source
KCLW Decoded METAR 2022/11/26 09:15 UTC NOAA

Station name not available
Nov 26, 2022 - 04:15 AM EST / 2022.11.26 0915 UTC
Wind: from the E (080 degrees) at 3 MPH (3 KT):0
Visibility: 1/2 mile(s):0
Sky conditions: overcast
Weather: fog
Temperature: 69 F (21 C)
Dew Point: 69 F (21 C)
Relative Humidity: 100%
Pressure (altimeter): 30.04 in. Hg (1017 hPa)
ob: KCLW 260915Z AUTO 08003KT 1/2SM FG OVC002 21/21 A3004 RMK AO2
cycle: 9

Station Type Date Time Source
KCLW TAF UTC NOAA

Error!

Example: see airport list